Time;durP1;ratioP1;P1;durP2;ratioP2;P2;SDS_P1;SDS_P2;PMS_P1;PMS_P2;Temp;Humidity;BMP_temperature;BMP_pressure;BME280_temperature;BME280_humidity;BME280_pressure;Samples;Min_cycle;Max_cycle;Signal;HPM_P1;HPM_P2
2022/11/19 00:00:29;;;;;;;3.63;3.33;;;;;;;8.40;78.85;99297.56;10522357;28;21101;-69
2022/11/19 00:05:31;;;;;;;3.83;3.42;;;;;;;8.31;79.09;99303.66;10528168;28;20056;-69
2022/11/19 00:10:34;;;;;;;3.88;3.58;;;;;;;8.35;77.62;99294.50;10521844;28;20062;-71
2022/11/19 00:15:36;;;;;;;4.60;4.05;;;;;;;8.24;76.56;99294.56;10512151;28;20546;-70
2022/11/19 00:20:37;;;;;;;5.15;4.72;;;;;;;8.09;76.85;99299.38;10528750;28;20142;-68
2022/11/19 00:25:38;;;;;;;5.38;4.88;;;;;;;7.99;77.12;99294.03;10521687;28;20047;-71
2022/11/19 00:30:40;;;;;;;5.13;4.45;;;;;;;7.92;77.08;99293.69;10514307;28;20051;-70
2022/11/19 00:35:48;;;;;;;5.45;4.78;;;;;;;7.86;77.51;99298.69;10519171;28;20048;-69
2022/11/19 00:40:50;;;;;;;4.88;4.47;;;;;;;7.89;78.82;99298.41;10524722;28;20517;-71
2022/11/19 00:45:51;;;;;;;5.72;5.20;;;;;;;7.77;77.28;99309.06;10526159;28;20059;-71
2022/11/19 00:50:52;;;;;;;5.90;4.30;;;;;;;7.63;77.07;99304.09;10529452;28;20036;-70
2022/11/19 00:55:54;;;;;;;6.20;4.95;;;;;;;7.62;77.41;99305.06;10517264;28;20542;-69
2022/11/19 01:00:55;;;;;;;5.10;4.57;;;;;;;7.60;76.86;99312.31;10526945;28;20131;-69
2022/11/19 01:05:57;;;;;;;5.25;4.75;;;;;;;7.58;76.09;99311.56;10560211;28;20040;-73
2022/11/19 01:11:11;;;;;;;5.43;4.78;;;;;;;7.59;75.73;99313.25;10541179;28;20133;-69
2022/11/19 01:16:21;;;;;;;4.95;4.45;;;;;;;7.55;75.44;99327.72;10524936;28;20066;-69
2022/11/19 01:21:26;;;;;;;6.85;5.43;;;;;;;7.43;76.64;99326.91;10526261;28;20093;-69
2022/11/19 01:26:27;;;;;;;5.78;5.05;;;;;;;7.39;76.40;99334.28;10504546;28;20101;-71
2022/11/19 01:31:29;;;;;;;8.50;6.28;;;;;;;7.38;75.29;99329.94;10506196;28;20051;-70
2022/11/19 01:36:31;;;;;;;7.70;6.95;;;;;;;7.32;75.49;99335.75;10515224;28;20082;-70
2022/11/19 01:41:32;;;;;;;7.35;6.35;;;;;;;7.25;76.58;99342.50;10565798;28;20039;-72
2022/11/19 01:46:36;;;;;;;8.27;6.65;;;;;;;7.18;76.59;99346.63;10514369;28;20056;-70
2022/11/19 01:51:50;;;;;;;8.02;7.22;;;;;;;7.11;74.50;99350.72;10528138;28;20127;-70
2022/11/19 01:56:55;;;;;;;9.65;7.85;;;;;;;7.00;75.62;99349.78;10519205;28;20127;-69
2022/11/19 02:01:56;;;;;;;;;;;;;;;6.88;75.59;99350.78;10526096;28;20629;-69
2022/11/19 02:06:57;;;;;;;9.70;8.18;;;;;;;6.87;75.54;99354.38;10521953;28;19927;-70
2022/11/19 02:12:08;;;;;;;9.52;8.48;;;;;;;6.80;75.04;99348.75;10570214;28;20051;-70
2022/11/19 02:17:28;;;;;;;8.95;8.05;;;;;;;6.78;75.18;99357.75;10534320;28;20163;-71
2022/11/19 02:22:35;;;;;;;10.43;9.43;;;;;;;6.70;75.30;99353.91;10543920;28;20048;-70
2022/11/19 02:28:07;;;;;;;10.63;9.63;;;;;;;6.64;76.09;99354.38;10555099;28;20526;-70
2022/11/19 02:33:23;;;;;;;10.38;9.27;;;;;;;6.61;76.26;99357.25;10525902;28;20688;-68
2022/11/19 02:38:49;;;;;;;10.38;9.38;;;;;;;6.45;75.58;99348.84;10518457;28;20047;-69
2022/11/19 02:44:57;;;;;;;9.60;8.70;;;;;;;6.49;76.94;99350.31;10504296;28;20426;-69
2022/11/19 02:49:27;;;;;;;10.30;9.30;;;;;;;6.48;75.86;99359.19;10518115;28;20039;-69
2022/11/19 02:54:28;;;;;;;11.75;9.75;;;;;;;6.44;76.69;99369.16;10517182;28;20039;-70
2022/11/19 03:05:29;;;;;;;11.48;10.38;;;;;;;6.49;76.89;99371.44;10520708;27;20047;-70
2022/11/19 03:10:42;;;;;;;11.05;9.95;;;;;;;6.43;76.21;99380.69;10511401;28;20845;-71
2022/11/19 03:21:14;;;;;;;11.57;10.45;;;;;;;6.34;77.18;99378.75;10534234;27;20058;-69
2022/11/19 03:26:27;;;;;;;12.63;11.23;;;;;;;6.27;76.78;99394.22;10526763;28;20044;-70
2022/11/19 03:31:31;;;;;;;12.30;11.07;;;;;;;6.19;77.02;99389.53;10520223;28;20044;-70
2022/11/19 03:36:36;;;;;;;12.53;11.30;;;;;;;6.12;77.97;99400.69;10515835;28;20070;-69
2022/11/19 03:41:40;;;;;;;11.57;10.48;;;;;;;6.14;78.30;99404.03;10555095;28;20135;-72
2022/11/19 03:46:44;;;;;;;11.50;10.40;;;;;;;6.12;77.76;99405.97;10543654;28;20044;-70
2022/11/19 03:51:52;;;;;;;11.50;10.30;;;;;;;6.12;78.10;99411.25;10561004;28;20065;-71
2022/11/19 03:56:55;;;;;;;12.52;11.32;;;;;;;6.12;78.48;99411.25;10542123;28;20569;-70
2022/11/19 04:02:02;;;;;;;12.30;11.02;;;;;;;6.12;78.66;99406.81;10528677;28;20059;-71
2022/11/19 04:07:04;;;;;;;10.73;9.68;;;;;;;6.12;78.75;99416.53;10526262;27;20122;-70
2022/11/19 04:12:15;;;;;;;12.43;10.98;;;;;;;6.12;78.38;99419.19;10525720;27;20116;-69
2022/11/19 04:17:18;;;;;;;12.23;11.02;;;;;;;6.16;78.82;99420.66;10505690;28;20719;-69
2022/11/19 04:22:19;;;;;;;12.27;10.38;;;;;;;6.18;78.96;99429.28;10522783;28;20040;-70
2022/11/19 04:27:20;;;;;;;11.80;10.60;;;;;;;6.17;79.23;99424.94;10527094;28;20156;-69
2022/11/19 04:32:22;;;;;;;11.15;10.05;;;;;;;6.15;80.33;99437.44;10516320;28;20406;-69
2022/11/19 04:37:23;;;;;;;10.07;9.07;;;;;;;6.09;80.81;99440.56;10535390;28;20201;-71
2022/11/19 04:42:24;;;;;;;8.40;7.50;;;;;;;6.03;80.40;99443.66;10561462;28;20047;-69
2022/11/19 04:47:25;;;;;;;5.28;4.78;;;;;;;6.04;79.99;99446.19;10522541;28;20553;-70
2022/11/19 04:52:27;;;;;;;5.20;4.20;;;;;;;5.92;78.17;99437.34;10529721;28;20043;-71
2022/11/19 04:57:28;;;;;;;4.40;4.00;;;;;;;5.90;78.68;99439.25;10524232;28;20044;-69
2022/11/19 05:02:29;;;;;;;5.60;4.90;;;;;;;5.89;78.81;99448.13;10525152;28;20141;-68
2022/11/19 05:07:31;;;;;;;4.82;4.38;;;;;;;5.84;78.27;99429.16;10523750;28;20047;-69
2022/11/19 05:12:32;;;;;;;5.40;4.45;;;;;;;5.76;78.34;99450.00;10524852;28;20076;-70
2022/11/19 05:17:33;;;;;;;5.10;4.60;;;;;;;5.75;78.56;99453.56;10520012;28;20051;-69
2022/11/19 05:22:35;;;;;;;5.05;4.55;;;;;;;5.72;77.53;99461.72;10543231;28;20047;-73
2022/11/19 05:27:36;;;;;;;4.88;4.38;;;;;;;5.66;78.60;99468.31;10549054;28;20071;-71
2022/11/19 05:32:37;;;;;;;6.25;5.20;;;;;;;5.66;78.44;99466.50;10520892;28;20048;-70
2022/11/19 05:37:39;;;;;;;5.15;4.75;;;;;;;5.61;77.94;99473.06;10515070;28;20181;-69
2022/11/19 05:42:40;;;;;;;5.82;5.28;;;;;;;5.57;77.59;99479.53;10509563;28;20048;-71
2022/11/19 05:47:42;;;;;;;7.10;5.13;;;;;;;5.49;78.08;99486.22;10512720;28;20052;-70
2022/11/19 05:52:49;;;;;;;6.28;5.78;;;;;;;5.47;78.03;99484.63;10523168;28;21427;-69
2022/11/19 05:57:50;;;;;;;7.65;5.97;;;;;;;5.42;77.24;99494.66;10525021;28;20048;-70
2022/11/19 06:02:52;;;;;;;6.50;5.75;;;;;;;5.40;77.22;99491.28;10519976;28;20522;-71
2022/11/19 06:07:53;;;;;;;7.18;6.47;;;;;;;5.34;77.75;99483.81;10521130;28;20044;-70
2022/11/19 06:12:54;;;;;;;8.27;6.93;;;;;;;5.38;78.19;99496.69;10522186;28;20048;-68
2022/11/19 06:17:56;;;;;;;7.18;6.47;;;;;;;5.35;78.00;99506.63;10520834;28;20249;-69
2022/11/19 06:22:57;;;;;;;7.38;6.57;;;;;;;5.29;78.00;99502.63;10524702;28;20043;-69
2022/11/19 06:27:59;;;;;;;8.02;7.22;;;;;;;5.23;77.82;99497.78;10509496;28;20134;-69
2022/11/19 06:33:00;;;;;;;8.75;7.82;;;;;;;5.23;77.69;99519.72;10529128;28;20055;-68
2022/11/19 06:38:02;;;;;;;7.38;6.63;;;;;;;5.23;77.41;99525.00;10511126;28;20058;-70
2022/11/19 06:43:03;;;;;;;8.82;7.82;;;;;;;5.31;78.56;99522.69;10530565;27;20144;-70
2022/11/19 06:48:05;;;;;;;7.30;6.60;;;;;;;5.27;78.22;99529.13;10527313;27;20057;-70
2022/11/19 06:53:06;;;;;;;7.78;6.97;;;;;;;5.31;77.59;99527.97;10523047;27;20401;-67
2022/11/19 06:58:08;;;;;;;7.68;6.80;;;;;;;5.33;77.95;99535.75;10507146;27;20066;-68
2022/11/19 07:03:09;;;;;;;7.43;6.65;;;;;;;5.21;76.96;99540.09;10510064;28;21240;-69
2022/11/19 07:08:10;;;;;;;7.38;6.68;;;;;;;5.14;77.15;99536.19;10545104;28;20043;-71
2022/11/19 07:13:12;;;;;;;7.00;6.30;;;;;;;5.16;78.02;99554.56;10537586;28;20059;-68
2022/11/19 07:18:13;;;;;;;8.85;8.05;;;;;;;5.11;77.38;99539.03;10542473;28;20051;-72
2022/11/19 07:23:14;;;;;;;8.68;7.78;;;;;;;5.08;77.47;99523.44;10548106;28;20458;-74
2022/11/19 07:28:16;;;;;;;8.98;8.07;;;;;;;5.12;78.37;99554.78;10519488;28;20078;-71
2022/11/19 07:33:17;;;;;;;9.30;7.78;;;;;;;5.09;77.59;99562.91;10535387;28;20451;-77
2022/11/19 07:38:18;;;;;;;11.48;8.25;;;;;;;5.10;78.22;99563.72;10553179;28;20064;-73
2022/11/19 07:43:20;;;;;;;9.13;6.68;;;;;;;5.05;77.75;99577.25;10551368;28;20051;-74
2022/11/19 07:48:22;;;;;;;7.85;6.13;;;;;;;5.08;78.21;99584.94;10508616;27;21493;-71
2022/11/19 07:53:23;;;;;;;7.45;6.70;;;;;;;5.11;78.44;99574.19;10507933;27;20066;-72
2022/11/19 07:58:24;;;;;;;6.68;6.05;;;;;;;5.20;77.36;99579.78;10512017;28;20081;-70
2022/11/19 08:03:26;;;;;;;7.25;6.28;;;;;;;5.20;77.74;99585.06;10506659;28;20055;-70
2022/11/19 08:08:27;;;;;;;6.85;6.15;;;;;;;5.18;77.08;99574.63;10502797;28;20052;-68
2022/11/19 08:13:29;;;;;;;5.97;5.40;;;;;;;5.15;77.19;99585.38;10511170;27;20047;-71
2022/11/19 08:18:31;;;;;;;6.60;5.90;;;;;;;5.09;78.02;99588.44;10506544;28;20039;-70
2022/11/19 08:23:33;;;;;;;6.60;5.80;;;;;;;5.08;78.25;99598.13;10503830;28;20063;-68
2022/11/19 08:28:34;;;;;;;8.98;6.13;;;;;;;5.14;78.98;99596.88;10501873;28;20060;-68
2022/11/19 08:33:35;;;;;;;6.25;5.65;;;;;;;5.14;78.32;99603.00;10518186;28;20063;-74
2022/11/19 08:38:37;;;;;;;5.95;5.28;;;;;;;5.13;77.33;99603.09;10537433;28;20054;-72
2022/11/19 08:43:39;;;;;;;6.07;5.47;;;;;;;5.07;78.17;99607.00;10502713;27;20048;-69
2022/11/19 08:48:41;;;;;;;5.63;5.05;;;;;;;5.09;78.33;99614.81;10501879;27;20051;-69
2022/11/19 08:53:42;;;;;;;4.88;4.47;;;;;;;5.14;78.43;99612.72;10506914;28;20052;-70
2022/11/19 08:58:44;;;;;;;4.80;4.32;;;;;;;5.05;78.92;99605.44;10504642;28;21689;-71
2022/11/19 09:03:46;;;;;;;4.00;3.67;;;;;;;5.21;77.37;99627.19;10501151;28;20060;-71
2022/11/19 09:08:47;;;;;;;4.38;3.97;;;;;;;5.24;77.93;99632.25;10543821;28;20032;-72
2022/11/19 09:13:48;;;;;;;3.78;3.38;;;;;;;5.22;76.62;99634.13;10514655;28;20058;-72
2022/11/19 09:18:50;;;;;;;7.32;6.10;;;;;;;5.15;76.83;99640.78;10503467;28;20153;-72
2022/11/19 09:23:51;;;;;;;5.00;3.90;;;;;;;5.08;77.29;99645.63;10503160;28;20422;-69
2022/11/19 09:28:53;;;;;;;3.78;3.42;;;;;;;5.11;77.30;99647.22;10502939;28;20043;-74
2022/11/19 09:33:54;;;;;;;4.47;4.07;;;;;;;5.11;76.54;99652.50;10486479;28;20051;-72
2022/11/19 09:38:57;;;;;;;4.75;4.25;;;;;;;5.30;77.22;99658.22;10515977;28;20054;-72
2022/11/19 09:44:07;;;;;;;6.28;5.22;;;;;;;5.33;78.04;99667.72;10532321;28;20269;-70
2022/11/19 09:49:13;;;;;;;5.93;4.43;;;;;;;5.40;76.78;99660.22;10485684;28;20059;-73
2022/11/19 09:54:17;;;;;;;4.43;3.80;;;;;;;5.29;77.03;99672.34;10482080;28;20044;-71
2022/11/19 09:59:27;;;;;;;4.57;3.80;;;;;;;5.20;77.12;99661.59;10500349;28;20064;-73
2022/11/19 10:04:32;;;;;;;4.93;4.43;;;;;;;5.21;78.03;99677.31;10501786;28;20051;-69
2022/11/19 10:10:01;;;;;;;5.93;5.00;;;;;;;5.27;76.71;99668.97;10510336;28;20047;-68
2022/11/19 10:15:25;;;;;;;6.05;4.78;;;;;;;5.20;76.53;99646.59;10521465;28;20043;-68
2022/11/19 10:21:07;;;;;;;6.40;5.63;;;;;;;5.28;77.09;99660.13;10516182;28;20134;-70
2022/11/19 10:26:13;;;;;;;5.70;5.13;;;;;;;5.25;75.74;99673.50;10511648;28;20053;-71
2022/11/19 10:31:21;;;;;;;6.30;5.07;;;;;;;5.23;77.02;99672.75;10505648;28;20127;-70
2022/11/19 10:36:40;;;;;;;6.82;5.13;;;;;;;5.26;76.96;99669.91;10505475;28;20048;-69
2022/11/19 10:41:48;;;;;;;7.03;5.97;;;;;;;5.18;77.59;99674.88;10506383;28;20050;-71
2022/11/19 10:46:49;;;;;;;5.90;5.30;;;;;;;5.24;76.93;99653.34;10504403;28;20051;-69
2022/11/19 10:51:51;;;;;;;6.63;6.03;;;;;;;5.39;77.12;99671.72;10505368;28;20590;-69
2022/11/19 10:56:54;;;;;;;5.95;5.35;;;;;;;5.46;76.61;99675.63;10510564;28;20063;-69
2022/11/19 11:02:02;;;;;;;6.57;5.97;;;;;;;5.47;75.55;99679.97;10530240;27;20113;-70
2022/11/19 11:07:04;;;;;;;6.72;5.75;;;;;;;5.47;76.04;99679.97;10533795;28;20048;-70
2022/11/19 11:17:37;;;;;;;6.57;5.70;;;;;;;5.49;75.31;99667.50;10533680;28;20058;-70
2022/11/19 11:22:39;;;;;;;7.07;6.38;;;;;;;5.57;75.30;99675.75;10535510;28;20069;-71
2022/11/19 11:27:40;;;;;;;10.82;9.68;;;;;;;5.51;75.48;99660.34;10536622;28;20382;-72
2022/11/19 11:32:42;;;;;;;12.73;10.65;;;;;;;5.45;76.15;99671.28;10535094;28;20433;-71
2022/11/19 11:37:43;;;;;;;12.30;10.38;;;;;;;5.54;76.23;99669.81;10521772;28;20111;-71
2022/11/19 11:42:45;;;;;;;13.43;12.02;;;;;;;5.46;75.33;99667.72;10537181;27;21739;-71
2022/11/19 11:47:46;;;;;;;13.68;11.98;;;;;;;5.37;74.77;99671.81;10540701;27;20040;-73
2022/11/19 11:52:53;;;;;;;14.50;10.77;;;;;;;5.22;76.08;99665.78;10520677;28;20059;-73
2022/11/19 11:58:04;;;;;;;13.43;12.00;;;;;;;5.36;75.60;99671.94;10539046;28;20071;-71
2022/11/19 12:03:08;;;;;;;12.60;11.27;;;;;;;5.34;76.10;99673.84;10532988;27;20222;-73
2022/11/19 12:08:53;;;;;;;13.18;11.50;;;;;;;5.35;76.51;99671.09;10493201;28;20120;-71
2022/11/19 12:14:01;;;;;;;15.75;13.25;;;;;;;5.42;76.59;99663.59;10498730;27;20048;-69
2022/11/19 12:19:31;;;;;;;14.38;12.85;;;;;;;5.45;75.73;99661.59;10502975;27;20166;-70
2022/11/19 12:24:55;;;;;;;15.02;13.32;;;;;;;5.42;75.36;99660.94;10538343;28;20050;-68
2022/11/19 12:30:09;;;;;;;14.05;12.13;;;;;;;5.43;76.50;99657.38;10498455;28;20052;-69
2022/11/19 12:35:32;;;;;;;13.50;10.85;;;;;;;5.54;75.46;99654.84;10503081;28;20048;-70
2022/11/19 12:41:07;;;;;;;14.30;12.80;;;;;;;5.62;75.94;99668.34;10501798;28;20052;-71
2022/11/19 12:46:18;;;;;;;;;;;;;;;5.63;75.91;99666.53;10498079;28;20055;-69
2022/11/19 12:51:41;;;;;;;14.23;12.57;;;;;;;5.62;75.58;99671.00;10511572;28;19938;-69
2022/11/19 12:57:01;;;;;;;13.00;11.52;;;;;;;5.66;75.48;99680.41;10507952;28;20063;-69
2022/11/19 13:02:14;;;;;;;19.08;15.43;;;;;;;5.65;75.56;99678.69;10499330;28;20118;-70
2022/11/19 13:07:26;;;;;;;14.57;12.98;;;;;;;5.60;75.51;99677.31;10501684;28;20051;-68
2022/11/19 13:12:42;;;;;;;12.82;11.52;;;;;;;5.62;75.91;99684.19;10507089;28;20051;-69
2022/11/19 13:17:48;;;;;;;13.38;11.98;;;;;;;5.59;75.51;99675.66;10499319;28;20036;-69
2022/11/19 13:22:54;;;;;;;13.07;11.38;;;;;;;5.58;75.51;99677.44;10509977;28;20055;-72
2022/11/19 13:27:57;;;;;;;14.63;12.88;;;;;;;5.61;74.99;99657.91;10549494;28;20853;-70
2022/11/19 13:33:16;;;;;;;13.63;12.23;;;;;;;5.60;74.64;99666.75;10544705;28;20111;-72
2022/11/19 13:38:35;;;;;;;13.93;12.45;;;;;;;5.53;74.85;99647.03;10543802;28;20044;-69
2022/11/19 13:49:03;;;;;;;16.35;14.45;;;;;;;5.59;75.42;99663.28;10537400;28;20058;-69
2022/11/19 13:54:06;;;;;;;14.13;12.18;;;;;;;5.63;74.90;99667.41;10524815;28;20042;-71
2022/11/19 13:59:24;;;;;;;14.93;13.43;;;;;;;5.63;74.68;99667.41;10517911;28;20051;-68
2022/11/19 14:04:35;;;;;;;14.35;12.70;;;;;;;5.59;75.16;99676.47;10500072;28;20307;-69
2022/11/19 14:09:55;;;;;;;13.63;11.63;;;;;;;5.66;76.09;99684.84;10499594;28;20055;-70
2022/11/19 14:26:20;;;;;;;11.85;9.73;;;;;;;5.48;73.52;99674.59;10495509;28;20135;-69
2022/11/19 14:31:22;;;;;;;12.23;10.68;;;;;;;5.55;73.11;99685.56;10497505;28;20047;-69
2022/11/19 14:36:54;;;;;;;10.27;9.18;;;;;;;5.61;72.65;99689.59;10495430;28;20064;-67
2022/11/19 14:42:16;;;;;;;10.48;9.45;;;;;;;5.69;73.26;99699.59;10489319;28;20059;-68
2022/11/19 14:47:21;;;;;;;12.10;10.80;;;;;;;5.61;73.49;99698.34;10510551;28;20146;-71
2022/11/19 14:52:29;;;;;;;13.40;11.07;;;;;;;5.48;73.16;99693.06;10469896;28;20052;-70
2022/11/19 14:57:40;;;;;;;11.48;10.32;;;;;;;5.44;73.88;99696.03;10506310;28;20043;-70
2022/11/19 15:02:45;;;;;;;11.38;10.18;;;;;;;5.49;72.83;99693.91;10507443;27;20051;-69
2022/11/19 15:07:49;;;;;;;11.90;10.18;;;;;;;5.51;72.73;99697.31;10504223;27;20062;-69
2022/11/19 15:13:17;;;;;;;11.32;10.15;;;;;;;5.51;72.98;99702.59;10512901;28;20128;-70
2022/11/19 15:18:43;;;;;;;11.98;10.75;;;;;;;5.37;73.89;99677.09;10507561;28;20146;-70
2022/11/19 15:23:52;;;;;;;12.07;10.65;;;;;;;5.49;74.71;99692.13;10549894;28;20082;-71
2022/11/19 15:29:07;;;;;;;12.95;10.75;;;;;;;5.55;73.73;99706.69;10544465;28;20718;-70
2022/11/19 15:34:08;;;;;;;;;;;;;;;5.53;73.21;99715.69;10506203;28;20968;-69
2022/11/19 15:39:25;;;;;;;13.32;11.88;;;;;;;5.44;72.80;99702.13;10528179;27;19934;-71
2022/11/19 15:44:46;;;;;;;13.95;11.85;;;;;;;5.31;73.03;99696.88;10544076;28;20126;-69
2022/11/19 15:49:50;;;;;;;14.70;12.65;;;;;;;5.32;73.12;99713.53;10537406;28;20576;-69
2022/11/19 15:55:09;;;;;;;14.33;12.83;;;;;;;5.25;73.15;99713.09;10505469;28;20128;-71
2022/11/19 16:00:19;;;;;;;13.57;11.68;;;;;;;5.20;73.08;99719.63;10502289;28;20055;-69
2022/11/19 16:05:23;;;;;;;15.30;12.88;;;;;;;5.21;72.85;99719.53;10504569;28;20051;-71
2022/11/19 16:10:30;;;;;;;14.15;11.68;;;;;;;5.17;74.10;99725.13;10503629;27;20055;-70
2022/11/19 16:20:53;;;;;;;15.10;12.93;;;;;;;5.22;72.80;99729.13;10452461;28;20398;-70
2022/11/19 16:26:00;;;;;;;14.38;12.68;;;;;;;5.23;72.74;99732.63;10503886;28;20047;-69
2022/11/19 16:31:04;;;;;;;15.77;13.13;;;;;;;5.06;72.47;99729.31;10504598;27;20047;-69
2022/11/19 16:36:14;;;;;;;17.50;15.07;;;;;;;5.12;72.96;99730.72;10507241;28;20047;-68
2022/11/19 16:46:39;;;;;;;13.20;11.68;;;;;;;5.12;72.17;99730.72;10501256;28;20058;-69
2022/11/19 16:51:52;;;;;;;11.48;10.27;;;;;;;5.02;72.37;99732.25;10499369;28;20079;-69
2022/11/19 16:56:53;;;;;;;14.05;11.50;;;;;;;4.99;72.22;99716.63;10524206;27;20053;-70
2022/11/19 17:01:58;;;;;;;13.52;12.10;;;;;;;4.99;71.21;99716.63;10528708;28;20055;-69
2022/11/19 17:07:00;;;;;;;13.15;11.75;;;;;;;4.93;70.79;99723.97;10484888;28;20051;-68
2022/11/19 17:12:17;;;;;;;12.95;11.38;;;;;;;4.87;70.60;99729.66;10503692;28;20505;-68
2022/11/19 17:17:31;;;;;;;13.40;12.07;;;;;;;4.91;72.53;99738.25;10496135;27;20509;-68
2022/11/19 17:22:40;;;;;;;14.32;12.80;;;;;;;4.91;71.19;99741.72;10504499;28;20047;-69
2022/11/19 17:27:41;;;;;;;13.43;11.82;;;;;;;4.93;71.43;99733.69;10501537;28;20047;-70
2022/11/19 17:32:50;;;;;;;14.35;11.80;;;;;;;5.00;71.76;99728.84;10504560;28;20059;-69
2022/11/19 17:37:52;;;;;;;15.30;12.90;;;;;;;4.94;71.32;99736.22;10534636;28;20638;-68
2022/11/19 17:48:20;;;;;;;12.90;11.35;;;;;;;4.89;71.50;99738.31;10500067;28;20046;-69
2022/11/19 17:53:22;;;;;;;13.77;12.18;;;;;;;4.86;71.53;99743.78;10494365;28;20502;-69
2022/11/19 17:58:23;;;;;;;13.45;12.15;;;;;;;4.78;71.71;99754.00;10499960;28;20427;-68
2022/11/19 18:03:25;;;;;;;14.15;11.48;;;;;;;4.82;71.91;99766.03;10499292;28;20279;-67
2022/11/19 18:08:27;;;;;;;13.65;12.25;;;;;;;4.79;71.24;99774.16;10502468;28;20472;-69
2022/11/19 18:13:30;;;;;;;13.20;11.85;;;;;;;4.82;71.17;99763.41;10500257;28;20039;-68
2022/11/19 18:18:32;;;;;;;13.05;11.50;;;;;;;4.84;70.64;99763.31;10500106;28;20052;-68
2022/11/19 18:23:33;;;;;;;13.82;12.32;;;;;;;4.76;71.20;99774.34;10504585;28;20059;-67
2022/11/19 18:28:34;;;;;;;15.07;12.63;;;;;;;4.80;71.54;99762.66;10506323;28;20055;-68
2022/11/19 18:33:36;;;;;;;14.50;13.00;;;;;;;4.77;71.39;99773.38;10509514;28;20217;-70
2022/11/19 18:38:37;;;;;;;15.88;13.50;;;;;;;4.76;70.88;99782.25;10508174;28;20055;-69
2022/11/19 18:48:59;;;;;;;15.48;13.20;;;;;;;4.73;71.18;99779.81;10508911;28;20050;-70
2022/11/19 18:54:01;;;;;;;15.02;13.52;;;;;;;4.75;71.05;99793.75;10503377;28;20054;-70
2022/11/19 18:59:02;;;;;;;16.27;13.57;;;;;;;4.64;70.35;99775.13;10509577;28;20440;-67
2022/11/19 19:04:05;;;;;;;15.05;13.48;;;;;;;4.72;70.31;99778.97;10508412;28;20142;-69
2022/11/19 19:09:07;;;;;;;15.30;13.05;;;;;;;4.62;70.29;99777.84;10512650;28;20051;-71
2022/11/19 19:14:08;;;;;;;15.75;12.82;;;;;;;4.60;70.45;99787.66;10528130;27;20098;-69
2022/11/19 19:19:12;;;;;;;15.05;13.27;;;;;;;4.59;70.61;99783.31;10551121;27;20048;-71
2022/11/19 19:24:14;;;;;;;16.27;14.57;;;;;;;4.56;70.03;99784.38;10539881;27;20070;-71
2022/11/19 19:29:15;;;;;;;14.27;12.77;;;;;;;4.69;69.70;99796.78;10542601;28;20601;-69
2022/11/19 19:34:17;;;;;;;14.65;13.02;;;;;;;4.60;70.54;99782.38;10508139;28;20055;-70
2022/11/19 19:39:18;;;;;;;17.10;13.75;;;;;;;4.56;69.24;99791.41;10506029;28;20048;-67
2022/11/19 19:44:20;;;;;;;16.00;14.30;;;;;;;4.58;69.89;99800.94;10489728;28;20802;-68
2022/11/19 19:49:22;;;;;;;14.57;13.07;;;;;;;4.51;69.68;99801.41;10507865;27;20056;-70
2022/11/19 19:54:24;;;;;;;15.02;12.73;;;;;;;4.47;69.59;99819.19;10501894;28;20089;-69
2022/11/19 19:59:26;;;;;;;15.77;12.88;;;;;;;4.51;70.69;99823.34;10502200;28;20136;-68
2022/11/19 20:04:27;;;;;;;15.52;13.93;;;;;;;4.46;70.30;99820.16;10504769;28;20450;-70
2022/11/19 20:09:28;;;;;;;17.00;14.27;;;;;;;4.50;69.59;99824.28;10507766;28;20040;-69
2022/11/19 20:14:30;;;;;;;17.65;13.60;;;;;;;4.55;70.34;99810.84;10501868;28;20650;-73
2022/11/19 20:19:31;;;;;;;15.80;13.98;;;;;;;4.57;70.37;99801.03;10504842;28;20052;-69
2022/11/19 20:24:33;;;;;;;16.02;13.15;;;;;;;4.49;70.68;99804.16;10508053;28;20048;-71
2022/11/19 20:29:35;;;;;;;16.02;14.20;;;;;;;4.43;70.39;99820.34;10517254;28;20429;-69
2022/11/19 20:34:36;;;;;;;13.70;12.30;;;;;;;4.45;70.80;99813.19;10507869;28;20059;-69
2022/11/19 20:39:37;;;;;;;16.05;13.57;;;;;;;4.50;70.91;99797.91;10504626;28;20048;-67
2022/11/19 20:44:39;;;;;;;15.57;13.32;;;;;;;4.42;70.93;99806.31;10504535;28;20055;-70
2022/11/19 20:49:40;;;;;;;14.43;12.85;;;;;;;4.54;71.52;99817.88;10491538;28;20062;-70
2022/11/19 20:54:42;;;;;;;15.98;13.80;;;;;;;4.48;70.82;99810.34;10502014;28;20597;-68
2022/11/19 20:59:43;;;;;;;16.23;14.52;;;;;;;4.53;70.96;99821.44;10519952;28;20497;-70
2022/11/19 21:04:45;;;;;;;15.15;13.65;;;;;;;4.49;70.33;99819.09;10503182;28;20055;-70
2022/11/19 21:09:46;;;;;;;17.52;15.82;;;;;;;4.45;71.08;99818.44;10504104;28;20047;-69
2022/11/19 21:14:48;;;;;;;15.73;14.00;;;;;;;4.54;70.37;99820.50;10506094;28;20180;-68
2022/11/19 21:19:49;;;;;;;15.25;13.75;;;;;;;4.47;70.02;99831.53;10503734;28;20036;-69
2022/11/19 21:24:51;;;;;;;17.10;15.20;;;;;;;4.37;70.38;99831.28;10505764;28;20070;-68
2022/11/19 21:29:52;;;;;;;16.35;13.88;;;;;;;4.34;70.46;99821.75;10503598;28;20043;-70
2022/11/19 21:34:53;;;;;;;15.93;14.30;;;;;;;4.29;70.38;99812.44;10502383;28;20564;-73
2022/11/19 21:39:54;;;;;;;15.98;14.27;;;;;;;4.50;71.21;99824.28;10504551;28;20077;-70
2022/11/19 21:44:56;;;;;;;16.73;14.82;;;;;;;4.63;70.19;99810.34;10489665;28;20051;-68
2022/11/19 21:49:59;;;;;;;16.58;14.88;;;;;;;4.56;70.10;99810.75;10501282;28;20044;-71
2022/11/19 21:55:00;;;;;;;16.70;14.45;;;;;;;4.51;69.64;99814.59;10501780;28;20056;-68
2022/11/19 22:00:04;;;;;;;17.35;15.48;;;;;;;4.51;70.04;99810.16;10500435;28;20429;-71
2022/11/19 22:05:06;;;;;;;15.63;13.60;;;;;;;4.45;69.67;99802.63;10512855;28;20043;-68
2022/11/19 22:10:07;;;;;;;16.60;14.48;;;;;;;4.48;70.50;99801.59;10514853;27;20062;-68
2022/11/19 22:15:10;;;;;;;18.65;14.70;;;;;;;4.37;69.52;99805.75;10495819;28;20055;-69
2022/11/19 22:20:11;;;;;;;14.80;13.30;;;;;;;4.38;70.21;99803.97;10516094;28;20048;-69
2022/11/19 22:25:13;;;;;;;16.83;13.82;;;;;;;4.36;70.39;99808.50;10515474;28;20087;-68
2022/11/19 22:30:15;;;;;;;17.42;14.05;;;;;;;4.28;69.91;99798.41;10528800;27;20217;-72
2022/11/19 22:35:17;;;;;;;16.02;13.73;;;;;;;4.30;70.33;99809.69;10549941;27;20047;-69
2022/11/19 22:40:18;;;;;;;15.07;12.75;;;;;;;4.34;70.85;99807.72;10562405;27;20524;-72
2022/11/19 22:45:20;;;;;;;16.25;13.82;;;;;;;4.32;70.40;99799.06;10562672;27;20062;-70
2022/11/19 22:50:21;;;;;;;16.75;13.93;;;;;;;4.30;69.51;99793.06;10542406;27;20062;-68
2022/11/19 22:55:22;;;;;;;15.25;13.57;;;;;;;4.25;69.78;99796.81;10514488;27;20402;-69
2022/11/19 23:00:43;;;;;;;16.45;14.13;;;;;;;4.25;70.43;99788.91;10529781;28;20490;-68
2022/11/19 23:05:54;;;;;;;16.05;14.23;;;;;;;4.24;69.64;99799.53;10533592;28;20059;-69
2022/11/19 23:10:58;;;;;;;14.93;13.10;;;;;;;4.29;69.51;99781.66;10535632;27;20047;-70
2022/11/19 23:16:07;;;;;;;14.48;12.45;;;;;;;4.23;70.04;99775.00;10527206;28;20054;-68
2022/11/19 23:21:12;;;;;;;15.57;13.85;;;;;;;4.32;69.64;99780.63;10527843;28;20054;-70
2022/11/19 23:26:16;;;;;;;16.15;13.98;;;;;;;4.35;69.81;99783.06;10529196;28;20050;-69
2022/11/19 23:31:21;;;;;;;15.45;13.43;;;;;;;4.32;69.93;99780.63;10530254;28;20370;-69
2022/11/19 23:36:25;;;;;;;17.00;14.00;;;;;;;4.25;70.61;99774.91;10544225;28;20048;-72
2022/11/19 23:41:30;;;;;;;16.70;13.68;;;;;;;4.26;70.36;99766.03;10572180;28;20269;-72
2022/11/19 23:46:33;;;;;;;15.35;13.05;;;;;;;4.31;70.58;99773.66;10556127;28;20071;-70
2022/11/19 23:51:37;;;;;;;15.98;12.90;;;;;;;4.34;70.47;99773.47;10547225;27;20058;-72
2022/11/19 23:56:38;;;;;;;14.45;12.75;;;;;;;4.34;71.10;99769.06;10573375;28;20099;-71
